createdAt,value
2019-04-11T00:00:07.007Z,66.64
2019-04-11T00:01:08.039Z,66.88
2019-04-11T00:02:06.941Z,66.33
2019-04-11T00:03:07.099Z,67.19
2019-04-11T00:04:08.136Z,66.47
2019-04-11T00:05:06.904Z,66.88
2019-04-11T00:06:07.501Z,66.47
2019-04-11T00:07:07.832Z,66.99
2019-04-11T00:08:07.986Z,67.82
2019-04-11T00:09:08.091Z,66.36
2019-04-11T00:10:06.901Z,66.67
2019-04-11T00:11:06.852Z,66.25
2019-04-11T00:12:06.830Z,67.02
2019-04-11T00:13:17.337Z,68.68
2019-04-11T00:14:07.825Z,68.05
2019-04-11T00:15:06.798Z,68.47
2019-04-11T00:16:06.972Z,68.47
2019-04-11T00:17:07.752Z,68.78
2019-04-11T00:18:06.783Z,68.47
2019-04-11T00:19:07.282Z,68.47
2019-04-11T00:20:07.674Z,68.16
2019-04-11T00:21:06.866Z,68.16
2019-04-11T00:22:06.744Z,68.68
2019-04-11T00:23:07.811Z,68.16
2019-04-11T00:24:07.095Z,67.98
2019-04-11T00:25:07.362Z,68.71
2019-04-11T00:26:06.696Z,68.08
2019-04-11T00:27:06.672Z,67.98
2019-04-11T00:28:07.648Z,68.60
2019-04-11T00:29:06.982Z,68.16
2019-04-11T00:30:06.632Z,68.16
2019-04-11T00:31:06.639Z,68.99
2019-04-11T00:32:09.185Z,68.99
2019-04-11T00:33:07.786Z,68.05
2019-04-11T00:34:06.913Z,69.09
2019-04-11T00:35:07.150Z,68.47
2019-04-11T00:36:06.563Z,68.37
2019-04-11T00:37:06.578Z,68.68
2019-04-11T00:38:07.639Z,67.54
2019-04-11T00:39:07.621Z,67.67
2019-04-11T00:40:06.526Z,68.37
2019-04-11T00:41:06.526Z,66.84
2019-04-11T00:42:06.554Z,67.57
2019-04-11T00:43:07.340Z,68.37
2019-04-11T00:44:06.479Z,68.40
2019-04-11T00:45:07.507Z,68.40
2019-04-11T00:46:06.467Z,68.29
2019-04-11T00:47:06.947Z,69.12
2019-04-11T00:48:06.447Z,68.29
2019-04-11T00:49:06.424Z,68.81
2019-04-11T00:50:07.398Z,69.02
2019-04-11T00:51:07.608Z,68.40
2019-04-11T00:52:06.595Z,68.50
2019-04-11T00:53:06.574Z,69.02
2019-04-11T00:54:06.710Z,67.77
2019-04-11T00:55:07.175Z,68.71
2019-04-11T00:56:06.366Z,68.60
2019-04-11T00:57:06.602Z,68.71
2019-04-11T00:58:07.469Z,68.50
2019-04-11T00:59:06.339Z,68.60
2019-04-11T01:00:06.959Z,68.81
2019-04-11T01:01:07.200Z,68.40
2019-04-11T01:02:07.270Z,68.40
2019-04-11T01:03:06.533Z,68.84
2019-04-11T01:04:07.487Z,69.05
2019-04-11T01:05:07.454Z,68.74
2019-04-11T01:06:06.273Z,69.23
2019-04-11T01:07:06.857Z,68.81
2019-04-11T01:08:07.226Z,68.74
2019-04-11T01:09:06.378Z,69.26
2019-04-11T01:10:06.645Z,69.37
2019-04-11T01:11:06.182Z,69.99
2019-04-11T01:12:06.175Z,69.26
2019-04-11T01:13:07.141Z,69.57
2019-04-11T01:14:06.200Z,69.68
2019-04-11T01:15:07.032Z,69.81
2019-04-11T01:16:07.094Z,69.89
2019-04-11T01:17:07.503Z,70.09
2019-04-11T01:18:06.110Z,70.51
2019-04-11T01:19:06.665Z,70.23
2019-04-11T01:20:07.007Z,70.20
2019-04-11T01:21:06.258Z,70.09
2019-04-11T01:22:06.114Z,69.05
2019-04-11T01:23:06.846Z,69.05
2019-04-11T01:24:06.992Z,69.57
2019-04-11T01:25:06.341Z,69.78
2019-04-11T01:26:06.019Z,69.50
2019-04-11T01:27:06.008Z,69.68
2019-04-11T01:28:06.806Z,69.92
2019-04-11T01:29:07.082Z,70.23
2019-04-11T01:30:06.208Z,70.40
2019-04-11T01:31:06.180Z,70.33
2019-04-11T01:32:06.503Z,70.26
2019-04-11T01:33:06.639Z,70.47
2019-04-11T01:34:06.489Z,70.85
2019-04-11T01:35:06.900Z,70.68
2019-04-11T01:36:06.963Z,70.99
2019-04-11T01:37:07.138Z,70.78
2019-04-11T01:38:06.226Z,71.30
2019-04-11T01:39:05.902Z,71.51
2019-04-11T01:40:05.868Z,71.30
2019-04-11T01:41:06.611Z,71.30
2019-04-11T01:42:06.924Z,71.41
2019-04-11T01:43:06.051Z,71.61
2019-04-11T01:44:07.482Z,71.41
2019-04-11T01:45:05.827Z,71.65
2019-04-11T01:46:05.822Z,72.03
2019-04-11T01:47:06.683Z,71.92
2019-04-11T01:48:06.955Z,71.92
2019-04-11T01:49:06.135Z,72.24
2019-04-11T01:50:05.775Z,72.03
2019-04-11T01:51:05.748Z,72.13
2019-04-11T01:52:06.512Z,72.17
2019-04-11T01:53:06.736Z,72.03
2019-04-11T01:54:05.796Z,71.82
2019-04-11T01:55:05.704Z,72.55
2019-04-11T01:56:05.716Z,72.06
2019-04-11T01:57:05.683Z,72.17
2019-04-11T01:58:06.631Z,72.27
2019-04-11T01:59:06.899Z,72.48
2019-04-11T02:00:06.001Z,72.34
2019-04-11T02:01:06.356Z,72.06
2019-04-11T02:02:05.647Z,72.17
2019-04-11T02:03:06.715Z,72.06
2019-04-11T02:04:05.857Z,72.48
2019-04-11T02:05:05.595Z,72.27
2019-04-11T02:06:05.644Z,72.89
2019-04-11T02:07:06.586Z,72.79
2019-04-11T02:08:05.573Z,73.42
2019-04-11T02:09:06.061Z,72.79
2019-04-11T02:10:05.545Z,72.89
2019-04-11T02:11:06.632Z,72.69
2019-04-11T02:12:05.820Z,73.03
2019-04-11T02:13:05.873Z,73.14
2019-04-11T02:14:12.450Z,73.10
2019-04-11T02:15:06.504Z,73.24
2019-04-11T02:16:05.477Z,73.03
2019-04-11T02:17:06.417Z,73.97
2019-04-11T02:18:05.502Z,73.55
2019-04-11T02:19:05.515Z,73.14
2019-04-11T02:20:05.429Z,73.35
2019-04-11T02:21:05.419Z,73.76
2019-04-11T02:22:06.491Z,74.39
2019-04-11T02:23:06.657Z,73.97
2019-04-11T02:24:05.849Z,73.97
2019-04-11T02:25:05.986Z,73.76
2019-04-11T02:26:05.375Z,73.76
2019-04-11T02:27:06.414Z,73.55
2019-04-11T02:28:06.487Z,73.76
2019-04-11T02:29:05.585Z,74.18
2019-04-11T02:31:20.455Z,73.35
2019-04-11T02:32:28.624Z,73.45
2019-04-11T02:33:26.781Z,73.97
2019-04-11T02:34:19.369Z,73.03
2019-04-11T02:35:19.847Z,72.83
2019-04-11T02:36:18.870Z,73.24
2019-04-11T02:37:19.731Z,73.24
2019-04-11T02:38:18.977Z,73.97
2019-04-11T02:39:20.306Z,73.14
2019-04-11T02:40:20.090Z,73.03
2019-04-11T02:41:18.920Z,73.24
2019-04-11T02:42:19.004Z,73.03
2019-04-11T02:43:18.108Z,72.93
2019-04-11T02:44:52.389Z,73.45
2019-04-11T02:45:35.515Z,73.24
2019-04-11T02:46:27.793Z,73.55
2019-04-11T02:47:24.198Z,73.66
2019-04-11T02:48:20.425Z,73.55
2019-04-11T02:49:19.336Z,73.86
2019-04-11T02:50:20.566Z,73.86
2019-04-11T02:51:18.312Z,73.90
2019-04-11T02:52:19.463Z,73.66
2019-04-11T02:53:17.872Z,73.76
2019-04-11T02:54:19.896Z,74.29
2019-04-11T02:55:19.170Z,74.49
2019-04-11T02:56:19.296Z,74.84
2019-04-11T02:57:18.354Z,74.80
2019-04-11T02:58:18.631Z,74.49
2019-04-11T02:59:19.508Z,74.32
2019-04-11T03:00:18.095Z,74.18
2019-04-11T03:01:17.981Z,74.60
2019-04-11T03:02:19.513Z,74.11
2019-04-11T03:03:17.907Z,74.70
2019-04-11T03:04:20.110Z,74.39
2019-04-11T03:05:18.390Z,74.95
2019-04-11T03:06:19.347Z,74.60
2019-04-11T03:07:17.727Z,74.29
2019-04-11T03:08:19.633Z,74.42
2019-04-11T03:09:19.551Z,74.21
2019-04-11T03:10:18.794Z,73.69
2019-04-11T03:11:19.186Z,74.52
2019-04-11T03:12:19.369Z,74.32
2019-04-11T03:13:19.035Z,74.60
2019-04-11T03:14:19.050Z,74.63
2019-04-11T03:15:31.740Z,74.42
2019-04-11T03:16:32.810Z,74.84
2019-04-11T03:17:23.099Z,74.52
2019-04-11T03:18:39.194Z,74.84
2019-04-11T03:19:35.703Z,74.52
2019-04-11T03:20:26.559Z,74.63
2019-04-11T03:21:21.587Z,74.42
2019-04-11T03:22:18.266Z,74.63
2019-04-11T03:23:20.904Z,74.63
2019-04-11T03:24:18.166Z,74.63
2019-04-11T03:25:17.836Z,74.35
2019-04-11T03:26:18.989Z,74.74
2019-04-11T03:27:17.947Z,74.95
2019-04-11T03:28:22.595Z,74.42
2019-04-11T03:29:19.907Z,74.84
2019-04-11T03:30:25.031Z,74.42
2019-04-11T03:32:13.596Z,74.84
2019-04-11T03:33:00.555Z,74.77
2019-04-11T03:34:12.723Z,74.84
2019-04-11T03:35:09.306Z,74.21
2019-04-11T03:37:08.659Z,74.63
2019-04-11T03:37:44.641Z,74.46
2019-04-11T03:38:42.369Z,74.52
2019-04-11T03:39:41.212Z,74.84
2019-04-11T03:40:38.691Z,74.21
2019-04-11T03:41:34.142Z,74.98
2019-04-11T03:42:36.619Z,75.57
2019-04-11T03:43:30.237Z,74.52
2019-04-11T03:44:24.443Z,75.18
2019-04-11T03:45:41.057Z,74.42
2019-04-11T03:46:33.911Z,74.74
2019-04-11T03:47:31.961Z,75.67
2019-04-11T03:48:35.562Z,75.36
2019-04-11T03:49:29.172Z,75.18
2019-04-11T03:50:23.275Z,75.08
2019-04-11T03:51:20.496Z,74.66
2019-04-11T03:52:17.401Z,75.29
2019-04-11T03:53:19.182Z,75.71
2019-04-11T03:54:17.964Z,75.81
2019-04-11T03:55:17.189Z,75.81
2019-04-11T03:56:19.569Z,75.50
2019-04-11T03:57:17.503Z,75.71
2019-04-11T03:58:17.536Z,75.60
2019-04-11T03:59:19.054Z,75.32
2019-04-11T04:00:17.129Z,76.33
2019-04-11T04:01:18.424Z,74.98
2019-04-11T04:02:17.161Z,75.18
2019-04-11T04:03:18.227Z,76.33
2019-04-11T04:04:19.491Z,75.71
2019-04-11T04:05:17.652Z,75.81
2019-04-11T04:06:17.101Z,75.81
2019-04-11T04:07:17.053Z,75.81
2019-04-11T04:08:17.928Z,76.02
2019-04-11T04:09:18.696Z,75.71
2019-04-11T04:10:18.393Z,76.54
2019-04-11T04:11:18.904Z,75.40
2019-04-11T04:12:18.532Z,75.18
2019-04-11T04:13:18.691Z,75.60
2019-04-11T04:14:17.783Z,75.08
2019-04-11T04:15:33.955Z,75.81
2019-04-11T04:16:24.926Z,76.43
2019-04-11T04:17:19.290Z,75.81
2019-04-11T04:18:16.931Z,76.37
2019-04-11T04:19:18.394Z,75.92
2019-04-11T04:20:17.258Z,75.92
2019-04-11T04:21:17.429Z,76.06
2019-04-11T04:22:18.560Z,76.37
2019-04-11T04:23:16.880Z,76.37
2019-04-11T04:24:16.866Z,76.57
2019-04-11T04:25:18.670Z,76.23
2019-04-11T04:26:17.172Z,76.12
2019-04-11T04:27:17.306Z,76.06
2019-04-11T04:28:16.836Z,76.23
2019-04-11T04:29:17.939Z,76.06
2019-04-11T04:30:18.081Z,75.95
2019-04-11T04:31:18.438Z,76.26
2019-04-11T04:32:18.511Z,76.47
2019-04-11T04:33:17.198Z,76.37
2019-04-11T04:34:17.770Z,76.47
2019-04-11T04:35:19.747Z,76.47
2019-04-11T04:36:18.253Z,76.37
2019-04-11T04:37:18.084Z,76.79
2019-04-11T04:38:16.732Z,76.68
2019-04-11T04:39:17.435Z,76.57
2019-04-11T04:40:31.595Z,76.57
2019-04-11T04:41:29.837Z,76.51
2019-04-11T04:42:24.895Z,76.57
2019-04-11T04:43:18.762Z,77.31
2019-04-11T04:44:17.034Z,77.20
2019-04-11T04:45:16.734Z,77.41
2019-04-11T04:46:29.997Z,77.41
2019-04-11T04:47:25.072Z,77.45
2019-04-11T04:48:20.892Z,77.31
2019-04-11T04:49:18.630Z,77.45
2019-04-11T04:50:18.084Z,77.24
2019-04-11T04:51:18.365Z,77.86
2019-04-11T04:52:16.566Z,77.03
2019-04-11T04:53:17.921Z,77.45
2019-04-11T04:54:16.539Z,77.45
2019-04-11T04:55:17.267Z,77.97
2019-04-11T04:56:21.975Z,77.66
2019-04-11T04:57:18.263Z,77.76
2019-04-11T04:58:17.957Z,78.07
2019-04-11T04:59:16.484Z,78.18
2019-04-11T05:00:16.466Z,78.18
2019-04-11T05:01:17.171Z,78.49
2019-04-11T05:02:17.804Z,78.07
2019-04-11T05:03:17.731Z,78.07
2019-04-11T05:04:16.428Z,78.39
2019-04-11T05:05:17.844Z,78.49
2019-04-11T05:06:16.503Z,78.39
2019-04-11T05:07:17.196Z,78.39
2019-04-11T05:08:16.656Z,78.59
2019-04-11T05:09:17.785Z,78.18
2019-04-11T05:10:16.363Z,78.42
2019-04-11T05:11:17.910Z,79.01
2019-04-11T05:12:16.364Z,78.94
2019-04-11T05:13:17.227Z,78.91
2019-04-11T05:14:16.367Z,78.59
2019-04-11T05:15:16.805Z,78.18
2019-04-11T05:16:17.841Z,78.07
2019-04-11T05:17:17.138Z,78.28
2019-04-11T05:18:18.059Z,78.49
2019-04-11T05:19:17.007Z,78.80
2019-04-11T05:20:16.367Z,78.70
2019-04-11T05:21:17.086Z,79.43
2019-04-11T05:22:16.823Z,79.43
2019-04-11T05:23:16.992Z,79.50
2019-04-11T05:24:16.647Z,79.64
2019-04-11T05:25:16.205Z,79.43
2019-04-11T05:26:17.282Z,79.29
2019-04-11T05:27:17.352Z,79.33
2019-04-11T05:28:16.165Z,79.29
2019-04-11T05:29:17.176Z,79.74
2019-04-11T05:30:16.712Z,79.71
2019-04-11T05:31:16.428Z,79.74
2019-04-11T05:32:16.140Z,79.64
2019-04-11T05:33:16.105Z,79.60
2019-04-11T05:34:16.135Z,79.50
2019-04-11T05:35:16.528Z,79.43
2019-04-11T05:36:16.582Z,79.39
2019-04-11T05:37:16.059Z,79.50
2019-04-11T05:38:16.773Z,79.60
2019-04-11T05:39:18.428Z,79.50
2019-04-11T05:40:16.873Z,79.50
2019-04-11T05:41:16.016Z,79.08
2019-04-11T05:42:18.956Z,79.81
2019-04-11T05:43:16.004Z,79.05
2019-04-11T05:44:16.752Z,79.57
2019-04-11T05:45:21.047Z,79.50
2019-04-11T05:46:32.535Z,79.67
2019-04-11T05:47:18.557Z,79.25
2019-04-11T05:48:15.937Z,79.36
2019-04-11T05:49:16.927Z,79.01
2019-04-11T05:50:15.980Z,78.69
2019-04-11T05:51:20.394Z,79.11
2019-04-11T05:52:17.799Z,78.59
2019-04-11T05:53:17.494Z,78.80
2019-04-11T05:54:16.398Z,79.01
2019-04-11T05:55:15.872Z,79.08
2019-04-11T05:56:16.716Z,78.87
2019-04-11T05:57:20.828Z,79.01
2019-04-11T05:58:17.707Z,79.18
2019-04-11T05:59:17.179Z,78.56
2019-04-11T06:00:15.939Z,78.87
2019-04-11T06:01:15.891Z,78.63
2019-04-11T06:02:17.085Z,78.73
2019-04-11T06:03:15.771Z,78.31
2019-04-11T06:04:20.477Z,78.28
2019-04-11T06:05:17.260Z,77.55
2019-04-11T06:06:16.364Z,77.34
2019-04-11T06:07:16.761Z,77.09
2019-04-11T06:08:22.447Z,76.89
2019-04-11T06:09:16.704Z,77.30
2019-04-11T06:10:15.692Z,77.16
2019-04-11T06:11:19.306Z,76.95
2019-04-11T06:12:17.141Z,77.06
2019-04-11T06:13:16.402Z,76.95
2019-04-11T06:14:15.651Z,76.72
2019-04-11T06:15:15.743Z,76.09
2019-04-11T06:16:16.744Z,75.26
2019-04-11T06:17:15.933Z,75.40
2019-04-11T06:18:26.197Z,75.88
2019-04-11T06:19:16.592Z,75.50
2019-04-11T06:20:15.613Z,75.78
2019-04-11T06:21:15.784Z,76.29
2019-04-11T06:22:15.583Z,76.40
2019-04-11T06:23:15.549Z,76.09
2019-04-11T06:24:16.315Z,75.67
2019-04-11T06:25:16.551Z,76.09
2019-04-11T06:26:16.667Z,75.64
2019-04-11T06:27:16.872Z,75.01
2019-04-11T06:28:15.507Z,74.39
2019-04-11T06:29:21.277Z,74.36
2019-04-11T06:30:16.488Z,74.43
2019-04-11T06:31:16.021Z,74.53
2019-04-11T06:32:15.925Z,74.19
2019-04-11T06:33:16.481Z,73.25
2019-04-11T06:34:15.583Z,73.11
2019-04-11T06:35:15.686Z,71.94
2019-04-11T06:36:16.067Z,70.80
2019-04-11T06:37:15.394Z,70.49
2019-04-11T06:38:16.421Z,70.25
2019-04-11T06:39:15.600Z,69.84
2019-04-11T06:40:15.905Z,70.11
2019-04-11T06:41:16.609Z,69.49
2019-04-11T06:42:15.343Z,69.90
2019-04-11T06:43:16.788Z,69.08
2019-04-11T06:44:16.354Z,68.77
2019-04-11T06:45:15.558Z,69.04
2019-04-11T06:46:15.297Z,69.12
2019-04-11T06:47:15.299Z,68.01
2019-04-11T06:48:15.715Z,67.91
2019-04-11T06:49:15.274Z,67.88
2019-04-11T06:50:15.295Z,68.08
2019-04-11T06:51:15.627Z,68.19
2019-04-11T06:52:15.243Z,67.95
2019-04-11T06:53:15.241Z,67.91
2019-04-11T06:54:15.208Z,66.64
2019-04-11T06:55:15.197Z,65.72
2019-04-11T06:56:15.185Z,66.23
2019-04-11T06:57:15.999Z,66.20
2019-04-11T06:58:15.175Z,65.89
2019-04-11T06:59:16.343Z,66.10
2019-04-11T07:00:15.141Z,66.06
2019-04-11T07:01:16.102Z,66.47
2019-04-11T07:02:19.759Z,66.71
2019-04-11T07:03:22.638Z,67.54
2019-04-11T07:04:16.130Z,68.02
2019-04-11T07:05:16.113Z,66.47
2019-04-11T07:06:15.426Z,66.16
2019-04-11T07:07:16.296Z,66.03
2019-04-11T07:08:16.022Z,66.13
2019-04-11T07:09:15.054Z,66.23
2019-04-11T07:10:15.032Z,65.92
2019-04-11T07:11:15.652Z,66.78
2019-04-11T07:12:15.615Z,67.19
2019-04-11T07:13:15.030Z,67.19
2019-04-11T07:14:15.043Z,67.50
2019-04-11T07:15:15.003Z,68.02
2019-04-11T07:16:15.436Z,68.33
2019-04-11T07:17:15.495Z,68.02
2019-04-11T07:18:15.102Z,68.92
2019-04-11T07:19:15.575Z,67.78
2019-04-11T07:20:14.950Z,66.61
2019-04-11T07:21:15.029Z,66.72
2019-04-11T07:22:15.322Z,66.61
2019-04-11T07:23:15.643Z,66.51
2019-04-11T07:24:16.018Z,66.51
2019-04-11T07:25:14.866Z,65.89
2019-04-11T07:26:14.920Z,66.30
2019-04-11T07:27:15.925Z,66.64
2019-04-11T07:28:14.851Z,68.19
2019-04-11T07:29:15.242Z,68.48
2019-04-11T07:30:15.730Z,67.44
2019-04-11T07:31:14.800Z,66.72
2019-04-11T07:32:16.116Z,66.51
2019-04-11T07:33:15.984Z,66.20
2019-04-11T07:34:14.829Z,66.00
2019-04-11T07:35:15.592Z,67.44
2019-04-11T07:36:14.769Z,66.48
2019-04-11T07:37:15.011Z,64.45
2019-04-11T07:38:14.773Z,66.61
2019-04-11T07:39:14.738Z,66.00
2019-04-11T07:40:15.613Z,66.41
2019-04-11T07:41:15.076Z,65.79
2019-04-11T07:42:15.897Z,66.00
2019-04-11T07:43:15.769Z,66.72
2019-04-11T07:44:15.424Z,66.20
2019-04-11T07:45:15.764Z,66.72
2019-04-11T07:46:15.001Z,66.10
2019-04-11T07:47:19.204Z,65.89
2019-04-11T07:48:15.610Z,66.00
2019-04-11T07:49:15.661Z,65.48
2019-04-11T07:50:16.783Z,65.97
2019-04-11T07:51:15.342Z,66.17
2019-04-11T07:52:15.527Z,65.14
2019-04-11T07:53:14.555Z,65.42
2019-04-11T07:54:15.717Z,63.56
2019-04-11T07:55:14.536Z,65.42
2019-04-11T07:56:14.566Z,65.49
2019-04-11T07:57:14.931Z,64.36
2019-04-11T07:58:15.344Z,63.43
2019-04-11T07:59:14.982Z,62.92
2019-04-11T08:00:15.051Z,62.37
2019-04-11T08:01:14.759Z,62.16
2019-04-11T08:02:14.504Z,61.72
2019-04-11T08:03:14.543Z,62.37
2019-04-11T08:04:15.065Z,62.34
2019-04-11T08:05:15.433Z,62.93
2019-04-11T08:06:15.456Z,61.90
2019-04-11T08:07:15.423Z,62.10
2019-04-11T08:08:15.402Z,62.31
2019-04-11T08:09:15.318Z,61.69
2019-04-11T08:10:14.372Z,62.28
2019-04-11T08:11:15.639Z,61.98
2019-04-11T08:12:15.020Z,60.12
2019-04-11T08:13:14.403Z,61.56
2019-04-11T08:14:14.388Z,60.53
2019-04-11T08:15:15.406Z,61.87
2019-04-11T08:16:14.751Z,60.84
2019-04-11T08:17:27.098Z,60.63
2019-04-11T08:18:15.276Z,61.12
2019-04-11T08:19:15.303Z,61.35
2019-04-11T08:20:15.267Z,61.51
2019-04-11T08:21:14.345Z,59.83
2019-04-11T08:22:14.776Z,59.19
2019-04-11T08:23:14.253Z,56.31
2019-04-11T08:24:14.216Z,55.90
2019-04-11T08:25:15.306Z,56.49
2019-04-11T08:26:14.253Z,54.64
2019-04-11T08:27:14.182Z,56.26
2019-04-11T08:28:14.212Z,56.77
2019-04-11T08:29:16.031Z,56.67
2019-04-11T08:30:14.898Z,57.39
2019-04-11T08:31:15.160Z,55.98
2019-04-11T08:32:14.150Z,56.67
2019-04-11T08:33:14.212Z,57.70
2019-04-11T08:34:21.924Z,54.61
2019-04-11T08:35:14.087Z,56.13
2019-04-11T08:36:14.076Z,55.41
2019-04-11T08:37:14.091Z,54.77
2019-04-11T08:38:14.060Z,54.36
2019-04-11T08:39:15.475Z,55.46
2019-04-11T08:40:14.032Z,53.90
2019-04-11T08:41:14.021Z,53.77
2019-04-11T08:42:14.971Z,54.87
2019-04-11T08:43:15.002Z,52.00
2019-04-11T08:44:14.007Z,52.00
2019-04-11T08:45:14.570Z,52.11
2019-04-11T08:46:15.027Z,52.19
2019-04-11T08:47:13.996Z,50.75
2019-04-11T08:48:15.059Z,51.47
2019-04-11T08:49:13.945Z,52.08
2019-04-11T08:50:14.352Z,48.83
2019-04-11T08:51:14.829Z,51.26
2019-04-11T08:52:13.973Z,51.26
2019-04-11T08:53:13.887Z,51.04
2019-04-11T08:54:13.901Z,50.52
2019-04-11T08:55:16.931Z,51.45
2019-04-11T08:56:14.656Z,49.63
2019-04-11T08:57:13.896Z,50.75
2019-04-11T08:58:14.135Z,52.06
2019-04-11T08:59:13.823Z,51.24
2019-04-11T09:00:13.825Z,49.40
2019-04-11T09:01:13.856Z,50.63
2019-04-11T09:02:13.790Z,49.09
2019-04-11T09:03:13.788Z,50.91
2019-04-11T09:04:15.276Z,48.56
2019-04-11T09:05:16.954Z,47.74
2019-04-11T09:06:14.701Z,48.97
2019-04-11T09:07:13.733Z,49.07
2019-04-11T09:08:14.206Z,47.45
2019-04-11T09:09:13.725Z,48.48
2019-04-11T09:10:13.702Z,48.60
2019-04-11T09:11:14.833Z,49.91
2019-04-11T09:12:14.186Z,49.50
2019-04-11T09:13:13.667Z,48.68
2019-04-11T09:14:13.736Z,48.66
2019-04-11T09:15:14.609Z,48.54
2019-04-11T09:16:13.636Z,48.43
2019-04-11T09:17:14.357Z,48.64
2019-04-11T09:18:15.055Z,47.00
2019-04-11T09:19:14.656Z,47.74
2019-04-11T09:20:13.696Z,48.56
2019-04-11T09:21:13.599Z,47.45
2019-04-11T09:22:13.581Z,47.53
2019-04-11T09:23:13.567Z,47.20
2019-04-11T09:24:15.260Z,46.25
2019-04-11T09:25:14.793Z,48.40
2019-04-11T09:26:13.969Z,49.09
2019-04-11T09:27:14.298Z,47.45
2019-04-11T09:28:13.520Z,48.38
2019-04-11T09:29:13.658Z,46.74
2019-04-11T09:30:15.862Z,47.82
2019-04-11T09:31:15.166Z,47.41
2019-04-11T09:32:13.458Z,45.90
2019-04-11T09:33:13.451Z,46.11
2019-04-11T09:34:13.452Z,46.31
2019-04-11T09:35:14.381Z,47.11
2019-04-11T09:36:13.476Z,47.31
2019-04-11T09:37:15.531Z,48.51
2019-04-11T09:38:13.943Z,45.96
2019-04-11T09:39:13.402Z,46.25
2019-04-11T09:40:13.375Z,46.04
2019-04-11T09:41:14.359Z,43.18
2019-04-11T09:42:13.464Z,46.12
2019-04-11T09:43:13.527Z,45.12
2019-04-11T09:44:13.341Z,46.22
2019-04-11T09:45:13.335Z,46.22
2019-04-11T09:46:14.404Z,43.77
2019-04-11T09:47:13.451Z,42.65
2019-04-11T09:48:15.276Z,43.67
2019-04-11T09:49:13.696Z,42.24
2019-04-11T09:50:13.281Z,43.91
2019-04-11T09:51:13.568Z,45.06
2019-04-11T09:52:14.281Z,44.45
2019-04-11T09:53:14.192Z,45.76
2019-04-11T09:54:13.218Z,45.45
2019-04-11T09:55:13.219Z,45.17
2019-04-11T09:56:13.202Z,45.88
2019-04-11T09:57:13.203Z,43.82
2019-04-11T09:58:13.178Z,42.97
2019-04-11T09:59:14.237Z,43.59
2019-04-11T10:00:14.272Z,41.65
2019-04-11T10:01:13.147Z,44.79
2019-04-11T10:02:14.443Z,42.94
2019-04-11T10:03:13.219Z,41.92
2019-04-11T10:04:14.284Z,43.85
2019-04-11T10:05:13.791Z,42.14
2019-04-11T10:06:13.995Z,41.83
2019-04-11T10:07:13.211Z,41.63
2019-04-11T10:08:13.084Z,41.51
2019-04-11T10:09:13.518Z,42.33
2019-04-11T10:10:13.051Z,41.92
2019-04-11T10:11:13.545Z,41.82
2019-04-11T10:12:13.816Z,43.32
2019-04-11T10:13:13.034Z,42.00
2019-04-11T10:14:13.516Z,41.71
2019-04-11T10:15:13.621Z,41.42
2019-04-11T10:16:12.970Z,41.16
2019-04-11T10:17:12.976Z,43.00
2019-04-11T10:18:23.251Z,43.84
2019-04-11T10:19:13.969Z,43.76
2019-04-11T10:20:12.928Z,44.18
2019-04-11T10:21:13.070Z,46.23
2019-04-11T10:22:13.146Z,46.23
2019-04-11T10:23:12.898Z,46.49
2019-04-11T10:24:15.882Z,46.29
2019-04-11T10:25:14.831Z,44.84
2019-04-11T10:26:13.873Z,45.25
2019-04-11T10:27:12.855Z,43.57
2019-04-11T10:28:13.267Z,40.53
2019-04-11T10:29:12.828Z,41.36
2019-04-11T10:30:13.062Z,43.65
2019-04-11T10:31:12.832Z,41.81
2019-04-11T10:32:12.814Z,43.24
2019-04-11T10:33:13.007Z,43.85
2019-04-11T10:34:13.271Z,43.37
2019-04-11T10:35:12.773Z,43.67
2019-04-11T10:36:12.767Z,44.90
2019-04-11T10:37:13.702Z,43.57
2019-04-11T10:38:12.727Z,44.38
2019-04-11T10:39:13.196Z,43.37
2019-04-11T10:40:13.549Z,46.08
2019-04-11T10:41:12.710Z,44.10
2019-04-11T10:42:12.735Z,41.65
2019-04-11T10:43:12.990Z,43.16
2019-04-11T10:44:13.852Z,43.67
2019-04-11T10:45:12.658Z,42.85
2019-04-11T10:46:13.313Z,41.26
2019-04-11T10:47:12.682Z,43.10
2019-04-11T10:48:13.789Z,42.10
2019-04-11T10:49:13.615Z,44.35
2019-04-11T10:50:12.603Z,41.49
2019-04-11T10:51:12.972Z,41.50
2019-04-11T10:52:12.583Z,42.41
2019-04-11T10:53:13.107Z,43.41
2019-04-11T10:54:13.567Z,46.26
2019-04-11T10:55:13.598Z,45.55
2019-04-11T10:56:13.656Z,44.53
2019-04-11T10:57:12.513Z,43.43
2019-04-11T10:58:12.988Z,43.96
2019-04-11T10:59:13.313Z,44.88
2019-04-11T11:00:12.909Z,45.49
2019-04-11T11:01:12.553Z,43.44
2019-04-11T11:02:12.756Z,45.92
2019-04-11T11:03:13.691Z,45.92
2019-04-11T11:04:13.661Z,46.04
2019-04-11T11:05:12.824Z,47.38
2019-04-11T11:06:13.551Z,47.27
2019-04-11T11:07:12.975Z,47.38
2019-04-11T11:08:13.205Z,45.92
2019-04-11T11:09:12.381Z,45.20
2019-04-11T11:10:12.386Z,45.08
2019-04-11T11:11:14.781Z,43.61
2019-04-11T11:12:12.720Z,45.86
2019-04-11T11:13:12.342Z,45.96
2019-04-11T11:14:12.416Z,44.81
2019-04-11T11:15:13.471Z,46.43
2019-04-11T11:16:12.331Z,43.18
2019-04-11T11:17:15.569Z,42.88
2019-04-11T11:18:39.871Z,42.08
2019-04-11T11:19:33.506Z,41.28
2019-04-11T11:20:22.419Z,42.61
2019-04-11T11:21:13.363Z,44.35
2019-04-11T11:22:12.567Z,43.24
2019-04-11T11:23:13.042Z,44.38
2019-04-11T11:24:12.397Z,45.41
2019-04-11T11:25:15.336Z,43.65
2019-04-11T11:26:12.621Z,44.88
2019-04-11T11:27:12.182Z,44.59
2019-04-11T11:28:12.268Z,43.16
2019-04-11T11:29:15.207Z,43.57
2019-04-11T11:30:12.774Z,45.23
2019-04-11T11:31:12.143Z,46.15
2019-04-11T11:32:13.256Z,46.04
2019-04-11T11:33:12.136Z,46.56
2019-04-11T11:34:17.369Z,44.49
2019-04-11T11:35:13.102Z,45.64
2019-04-11T11:36:13.075Z,45.97
2019-04-11T11:37:13.126Z,45.37
2019-04-11T11:38:12.059Z,46.39
2019-04-11T11:39:13.076Z,46.60
2019-04-11T11:40:15.012Z,47.73
2019-04-11T11:41:12.218Z,47.30
2019-04-11T11:42:12.402Z,47.30
2019-04-11T11:43:12.007Z,45.78
2019-04-11T11:44:12.011Z,47.09
2019-04-11T11:45:13.102Z,45.97
2019-04-11T11:46:12.236Z,45.97
2019-04-11T11:47:12.031Z,47.50
2019-04-11T11:48:17.392Z,48.83
2019-04-11T11:49:14.265Z,48.09
2019-04-11T11:50:18.197Z,49.83
2019-04-11T11:51:13.082Z,48.81
2019-04-11T11:52:13.000Z,45.74
2019-04-11T11:53:13.328Z,46.15
2019-04-11T11:54:11.883Z,46.04
2019-04-11T11:55:12.424Z,44.82
2019-04-11T11:56:11.863Z,44.84
2019-04-11T11:57:12.838Z,45.35
2019-04-11T11:58:16.825Z,44.73
2019-04-11T11:59:13.290Z,45.17
2019-04-11T12:00:12.686Z,46.58
2019-04-11T12:01:11.825Z,44.94
2019-04-11T12:02:15.691Z,44.94
2019-04-11T12:03:12.918Z,46.17
2019-04-11T12:04:12.773Z,46.17
2019-04-11T12:05:15.862Z,46.39
2019-04-11T12:06:12.667Z,47.19
2019-04-11T12:07:12.673Z,46.17
2019-04-11T12:08:14.887Z,48.01
2019-04-11T12:09:12.067Z,44.53
2019-04-11T12:10:11.714Z,46.17
2019-04-11T12:11:11.701Z,46.25
2019-04-11T12:12:11.693Z,45.84
2019-04-11T12:13:13.350Z,45.76
2019-04-11T12:14:11.765Z,43.79
2019-04-11T12:15:14.235Z,44.61
2019-04-11T12:16:16.083Z,42.77
2019-04-11T12:17:12.634Z,43.49
2019-04-11T12:18:12.723Z,44.90
2019-04-11T12:19:15.980Z,44.29
2019-04-11T12:20:14.938Z,44.90
2019-04-11T12:21:11.587Z,44.70
2019-04-11T12:22:12.404Z,43.37
2019-04-11T12:23:11.566Z,43.04
2019-04-11T12:24:11.629Z,43.65
2019-04-11T12:25:12.397Z,41.08
2019-04-11T12:26:13.658Z,42.22
2019-04-11T12:27:13.040Z,43.14
2019-04-11T12:28:14.600Z,42.55
2019-04-11T12:29:12.224Z,45.92
2019-04-11T12:30:11.487Z,46.21
2019-04-11T12:31:11.476Z,45.70
2019-04-11T12:32:13.258Z,45.49
2019-04-11T12:33:11.465Z,42.94
2019-04-11T12:34:12.346Z,42.65
2019-04-11T12:35:11.639Z,41.83
2019-04-11T12:36:12.477Z,41.95
2019-04-11T12:37:12.483Z,43.06
2019-04-11T12:38:11.400Z,43.16
2019-04-11T12:39:11.386Z,43.57
2019-04-11T12:40:11.427Z,40.89
2019-04-11T12:41:11.364Z,41.59
2019-04-11T12:42:11.369Z,40.89
2019-04-11T12:43:11.343Z,41.59
2019-04-11T12:44:11.334Z,42.30
2019-04-11T12:45:11.323Z,44.35
2019-04-11T12:46:11.321Z,44.04
2019-04-11T12:47:11.300Z,41.89
2019-04-11T12:48:12.102Z,43.43
2019-04-11T12:49:11.281Z,41.69
2019-04-11T12:50:11.286Z,40.46
2019-04-11T12:51:11.266Z,41.61
2019-04-11T12:52:11.243Z,42.71
2019-04-11T12:53:11.237Z,41.30
2019-04-11T12:54:11.223Z,40.89